createdAt,value
2023-03-11T00:00:51.950Z,79.00
2023-03-11T00:03:20.779Z,79.30
2023-03-11T00:05:47.595Z,79.30
2023-03-11T00:08:17.051Z,79.30
2023-03-11T00:10:45.156Z,79.30
2023-03-11T00:13:13.532Z,78.90
2023-03-11T00:15:42.394Z,78.50
2023-03-11T00:18:09.186Z,78.50
2023-03-11T00:20:37.847Z,78.50
2023-03-11T00:23:05.788Z,78.50
2023-03-11T00:25:34.512Z,78.30
2023-03-11T00:28:01.366Z,78.30
2023-03-11T00:30:29.022Z,78.00
2023-03-11T00:32:58.207Z,77.60
2023-03-11T00:35:27.104Z,77.20
2023-03-11T00:37:56.764Z,77.00
2023-03-11T00:40:25.789Z,77.10
2023-03-11T00:42:52.689Z,77.00
2023-03-11T00:45:20.943Z,76.90
2023-03-11T00:47:47.936Z,76.60
2023-03-11T00:50:19.013Z,76.80
2023-03-11T00:52:46.702Z,76.70
2023-03-11T00:55:15.143Z,76.80
2023-03-11T00:57:41.902Z,76.50
2023-03-11T01:00:12.749Z,76.50
2023-03-11T01:02:39.540Z,76.70
2023-03-11T01:05:07.176Z,76.80
2023-03-11T01:07:35.355Z,76.90
2023-03-11T01:10:02.482Z,77.10
2023-03-11T01:12:29.246Z,77.20
2023-03-11T01:14:56.010Z,77.20
2023-03-11T01:17:22.738Z,77.60
2023-03-11T01:19:49.504Z,77.30
2023-03-11T01:22:16.496Z,77.10
2023-03-11T01:24:44.662Z,77.20
2023-03-11T01:27:11.406Z,77.10
2023-03-11T01:29:38.140Z,77.00
2023-03-11T01:32:05.555Z,76.70
2023-03-11T01:34:32.429Z,76.80
2023-03-11T01:36:59.383Z,76.90
2023-03-11T01:39:26.139Z,76.80
2023-03-11T01:41:54.487Z,77.30
2023-03-11T01:44:21.546Z,77.20
2023-03-11T01:47:25.810Z,77.00
2023-03-11T01:49:52.694Z,77.20
2023-03-11T01:52:19.748Z,77.30
2023-03-11T01:54:46.513Z,76.80
2023-03-11T01:57:15.085Z,76.90
2023-03-11T01:59:47.505Z,76.70
2023-03-11T02:02:19.892Z,76.60
2023-03-11T02:04:47.218Z,77.10
2023-03-11T02:07:14.546Z,77.10
2023-03-11T02:09:41.390Z,77.10
2023-03-11T02:12:11.326Z,76.60
2023-03-11T02:14:42.075Z,76.30
2023-03-11T02:17:09.151Z,76.90
2023-03-11T02:19:46.060Z,76.70
2023-03-11T02:22:14.083Z,76.60
2023-03-11T02:24:45.271Z,76.70
2023-03-11T02:27:15.952Z,76.60
2023-03-11T02:29:44.296Z,76.50
2023-03-11T02:32:11.390Z,75.80
2023-03-11T02:34:39.762Z,75.60
2023-03-11T02:37:08.022Z,75.30
2023-03-11T02:39:36.522Z,75.60
2023-03-11T02:42:07.400Z,75.50
2023-03-11T02:44:35.704Z,75.40
2023-03-11T02:47:02.556Z,75.20
2023-03-11T02:49:30.486Z,75.00
2023-03-11T02:51:57.239Z,75.40
2023-03-11T02:54:23.969Z,75.50
2023-03-11T02:56:50.679Z,75.50
2023-03-11T02:59:17.422Z,75.50
2023-03-11T03:01:45.499Z,75.40
2023-03-11T03:04:12.259Z,75.30
2023-03-11T03:06:39.035Z,75.20
2023-03-11T03:09:05.768Z,75.50
2023-03-11T03:11:32.512Z,75.50
2023-03-11T03:13:59.221Z,75.30
2023-03-11T03:16:26.076Z,75.30
2023-03-11T03:18:54.785Z,75.10
2023-03-11T03:21:21.506Z,75.00
2023-03-11T03:23:48.269Z,75.20
2023-03-11T03:26:15.022Z,75.30
2023-03-11T03:28:41.711Z,76.10
2023-03-11T03:31:10.136Z,75.20
2023-03-11T03:33:37.086Z,75.30
2023-03-11T03:36:08.730Z,75.30
2023-03-11T03:38:35.535Z,75.10
2023-03-11T03:41:02.256Z,75.30
2023-03-11T03:43:28.982Z,75.20
2023-03-11T03:45:56.550Z,75.10
2023-03-11T03:48:23.574Z,75.10
2023-03-11T03:50:50.310Z,75.10
2023-03-11T03:53:18.544Z,75.00
2023-03-11T03:55:45.334Z,74.90
2023-03-11T03:58:12.050Z,74.70
2023-03-11T04:00:38.822Z,75.30
2023-03-11T04:03:05.817Z,75.30
2023-03-11T04:05:32.641Z,75.40
2023-03-11T04:07:59.396Z,75.60
2023-03-11T04:10:27.756Z,75.60
2023-03-11T04:12:54.511Z,75.60
2023-03-11T04:15:21.241Z,75.50
2023-03-11T04:17:47.946Z,76.20
2023-03-11T04:20:14.822Z,77.30
2023-03-11T04:22:41.540Z,77.90
2023-03-11T04:25:08.683Z,77.90
2023-03-11T04:27:36.879Z,77.40
2023-03-11T04:30:04.194Z,77.50
2023-03-11T04:32:30.950Z,77.40
2023-03-11T04:34:57.714Z,77.50
2023-03-11T04:37:27.824Z,77.40
2023-03-11T04:39:54.540Z,77.20
2023-03-11T04:42:21.414Z,77.20
2023-03-11T04:44:49.459Z,77.10
2023-03-11T04:47:16.200Z,76.80
2023-03-11T04:49:42.936Z,77.20
2023-03-11T04:52:09.686Z,76.40
2023-03-11T04:54:36.424Z,76.40
2023-03-11T04:57:03.195Z,76.60
2023-03-11T04:59:29.923Z,76.60
2023-03-11T05:01:58.051Z,76.20
2023-03-11T05:04:24.869Z,76.40
2023-03-11T05:06:51.645Z,76.60
2023-03-11T05:09:18.537Z,76.90
2023-03-11T05:11:45.271Z,76.70
2023-03-11T05:14:12.090Z,76.90
2023-03-11T05:16:38.793Z,76.40
2023-03-11T05:19:06.926Z,76.40
2023-03-11T05:21:33.657Z,77.00
2023-03-11T05:24:00.339Z,76.80
2023-03-11T05:26:27.027Z,76.70
2023-03-11T05:28:53.741Z,76.10
2023-03-11T05:31:20.477Z,77.60
2023-03-11T05:33:47.186Z,77.10
2023-03-11T05:36:15.283Z,77.00
2023-03-11T05:38:41.981Z,77.00
2023-03-11T05:41:08.692Z,77.00
2023-03-11T05:43:35.389Z,77.20
2023-03-11T05:46:02.102Z,77.30
2023-03-11T05:48:28.845Z,77.50
2023-03-11T05:50:55.553Z,77.40
2023-03-11T05:53:23.651Z,77.70
2023-03-11T05:55:56.413Z,77.50
2023-03-11T05:58:23.242Z,77.40
2023-03-11T06:00:49.979Z,76.80
2023-03-11T06:03:16.697Z,77.20
2023-03-11T06:05:45.259Z,77.90
2023-03-11T06:08:12.041Z,77.40
2023-03-11T06:10:40.418Z,77.30
2023-03-11T06:13:07.188Z,77.00
2023-03-11T06:15:34.312Z,77.70
2023-03-11T06:18:01.025Z,77.10
2023-03-11T06:20:27.871Z,77.60
2023-03-11T06:22:54.578Z,77.50
2023-03-11T06:25:21.331Z,77.30
2023-03-11T06:27:51.341Z,77.50
2023-03-11T06:30:18.637Z,77.40
2023-03-11T06:32:46.279Z,77.00
2023-03-11T06:35:13.162Z,77.20
2023-03-11T06:37:40.704Z,77.40
2023-03-11T06:40:09.748Z,77.50
2023-03-11T06:42:36.865Z,78.40
2023-03-11T06:45:05.862Z,77.60
2023-03-11T06:47:32.660Z,77.30
2023-03-11T06:49:59.459Z,77.40
2023-03-11T06:52:26.278Z,77.40
2023-03-11T06:54:52.984Z,77.30
2023-03-11T06:57:19.669Z,77.30
2023-03-11T06:59:46.416Z,77.50
2023-03-11T07:02:14.784Z,77.70
2023-03-11T07:04:41.549Z,77.40
2023-03-11T07:07:08.417Z,77.50
2023-03-11T07:09:35.156Z,77.70
2023-03-11T07:12:01.901Z,77.70
2023-03-11T07:14:28.648Z,77.90
2023-03-11T07:16:55.425Z,77.70
2023-03-11T07:19:23.591Z,77.80
2023-03-11T07:21:50.303Z,77.20
2023-03-11T07:24:17.790Z,77.20
2023-03-11T07:26:44.867Z,77.50
2023-03-11T07:29:11.598Z,77.10
2023-03-11T07:31:38.702Z,77.00
2023-03-11T07:34:06.998Z,77.30
2023-03-11T07:36:35.083Z,77.10
2023-03-11T07:39:05.254Z,77.00
2023-03-11T07:41:33.731Z,76.90
2023-03-11T07:44:01.355Z,76.60
2023-03-11T07:46:29.940Z,76.30
2023-03-11T07:48:56.825Z,76.30
2023-03-11T07:51:25.824Z,76.10
2023-03-11T07:53:55.682Z,76.30
2023-03-11T07:56:25.986Z,76.20
2023-03-11T07:58:53.268Z,75.70
2023-03-11T08:01:22.571Z,76.20
2023-03-11T08:03:51.611Z,76.30
2023-03-11T08:06:20.330Z,75.90
2023-03-11T08:08:47.951Z,76.60
2023-03-11T08:11:17.263Z,76.30
2023-03-11T08:13:45.363Z,76.50
2023-03-11T08:16:14.614Z,75.50
2023-03-11T08:18:41.787Z,75.20
2023-03-11T08:21:11.229Z,74.60
2023-03-11T08:23:38.249Z,74.80
2023-03-11T08:26:06.046Z,75.00
2023-03-11T08:28:34.462Z,75.60
2023-03-11T08:31:01.855Z,76.10
2023-03-11T08:33:28.739Z,76.60
2023-03-11T08:35:55.567Z,76.20
2023-03-11T08:38:22.561Z,76.30
2023-03-11T08:40:49.261Z,76.20
2023-03-11T08:43:15.953Z,76.10
2023-03-11T08:45:44.089Z,75.90
2023-03-11T08:48:11.965Z,76.10
2023-03-11T08:50:52.819Z,76.00
2023-03-11T08:53:20.935Z,76.00
2023-03-11T08:55:47.741Z,76.00
2023-03-11T08:58:14.443Z,76.10
2023-03-11T09:00:41.140Z,75.50
2023-03-11T09:03:09.269Z,75.90
2023-03-11T09:05:36.060Z,76.10
2023-03-11T09:08:05.189Z,75.90
2023-03-11T09:10:32.505Z,75.90
2023-03-11T09:12:59.245Z,76.50
2023-03-11T09:15:26.143Z,75.90
2023-03-11T09:17:53.001Z,75.80
2023-03-11T09:20:21.263Z,76.30
2023-03-11T09:22:48.060Z,76.70
2023-03-11T09:25:15.421Z,76.90
2023-03-11T09:27:42.238Z,76.80
2023-03-11T09:30:10.753Z,76.90
2023-03-11T09:32:37.582Z,76.60
2023-03-11T09:35:05.052Z,76.70
2023-03-11T09:37:33.130Z,76.90
2023-03-11T09:39:59.839Z,76.90
2023-03-11T09:42:34.627Z,76.80
2023-03-11T09:45:05.206Z,76.80
2023-03-11T09:47:38.595Z,77.00
2023-03-11T09:50:22.093Z,76.90
2023-03-11T09:53:03.196Z,76.90
2023-03-11T09:55:40.624Z,77.20
2023-03-11T09:58:19.316Z,77.10
2023-03-11T10:00:47.462Z,77.00
2023-03-11T10:03:26.465Z,77.30
2023-03-11T10:05:57.684Z,77.30
2023-03-11T10:08:32.340Z,75.40
2023-03-11T10:11:05.239Z,75.90
2023-03-11T10:13:40.953Z,75.60
2023-03-11T10:16:20.408Z,76.10
2023-03-11T10:18:56.019Z,76.00
2023-03-11T10:21:35.656Z,75.50
2023-03-11T10:24:17.213Z,75.70
2023-03-11T10:26:47.844Z,75.50
2023-03-11T10:29:19.475Z,75.50
2023-03-11T10:31:53.984Z,75.80
2023-03-11T10:34:26.504Z,76.20
2023-03-11T10:36:59.170Z,75.30
2023-03-11T10:39:27.918Z,76.20
2023-03-11T10:41:57.235Z,76.30
2023-03-11T10:44:28.615Z,76.50
2023-03-11T10:46:55.323Z,76.00
2023-03-11T10:49:22.089Z,76.40
2023-03-11T10:51:50.851Z,76.40
2023-03-11T10:54:28.672Z,77.00
2023-03-11T10:56:57.962Z,77.60
2023-03-11T10:59:28.271Z,77.70
2023-03-11T11:01:56.817Z,77.20
2023-03-11T11:04:30.618Z,77.30
2023-03-11T11:06:57.483Z,77.40
2023-03-11T11:09:26.961Z,77.60
2023-03-11T11:12:12.070Z,77.50
2023-03-11T11:14:47.154Z,77.70
2023-03-11T11:17:19.587Z,77.60
2023-03-11T11:19:47.740Z,77.40
2023-03-11T11:22:17.500Z,77.90
2023-03-11T11:24:46.180Z,77.70
2023-03-11T11:27:20.424Z,77.50
2023-03-11T11:29:48.203Z,77.90
2023-03-11T11:32:23.741Z,77.60
2023-03-11T11:34:58.560Z,77.90
2023-03-11T11:37:26.359Z,77.40
2023-03-11T11:39:55.988Z,77.20
2023-03-11T11:42:26.197Z,77.60
2023-03-11T11:44:57.356Z,78.40
2023-03-11T11:47:27.692Z,77.00
2023-03-11T11:49:56.929Z,77.40
2023-03-11T11:52:27.299Z,77.40
2023-03-11T11:54:58.745Z,77.70
2023-03-11T11:57:27.242Z,77.40
2023-03-11T11:59:55.937Z,77.60
2023-03-11T12:02:44.542Z,77.30
2023-03-11T12:05:17.896Z,76.60
2023-03-11T12:07:57.238Z,77.00
2023-03-11T12:10:29.351Z,76.60
2023-03-11T12:13:25.935Z,77.10
2023-03-11T12:15:58.831Z,77.00
2023-03-11T12:18:32.540Z,76.90
2023-03-11T12:20:59.553Z,76.90
2023-03-11T12:23:42.869Z,76.10
2023-03-11T12:26:18.391Z,77.90
2023-03-11T12:28:53.103Z,76.90
2023-03-11T12:31:21.105Z,77.30
2023-03-11T12:33:50.489Z,77.50
2023-03-11T12:36:23.468Z,77.20
2023-03-11T12:38:51.905Z,76.80
2023-03-11T12:41:35.584Z,77.20
2023-03-11T12:44:22.376Z,77.50
2023-03-11T12:47:23.205Z,77.30
2023-03-11T12:49:52.302Z,77.70
2023-03-11T12:52:25.643Z,77.80
2023-03-11T12:55:24.390Z,77.70
2023-03-11T12:57:59.026Z,77.20
2023-03-11T13:00:53.059Z,78.10
2023-03-11T13:03:40.584Z,77.50
2023-03-11T13:06:32.420Z,78.20
2023-03-11T13:08:59.430Z,78.40
2023-03-11T13:11:38.565Z,78.50
2023-03-11T13:14:16.257Z,78.50
2023-03-11T13:16:45.310Z,77.40
2023-03-11T13:19:35.629Z,78.00
2023-03-11T13:22:04.406Z,77.00
2023-03-11T13:24:50.882Z,78.00
2023-03-11T13:27:34.409Z,78.20
2023-03-11T13:30:09.804Z,77.80
2023-03-11T13:33:11.092Z,75.70
2023-03-11T13:35:50.467Z,76.60
2023-03-11T13:38:57.607Z,76.70
2023-03-11T13:41:29.950Z,76.60
2023-03-11T13:44:02.227Z,77.60
2023-03-11T13:46:32.339Z,77.60
2023-03-11T13:49:06.787Z,78.00
2023-03-11T13:51:39.032Z,78.30
2023-03-11T13:54:28.332Z,78.60
2023-03-11T13:56:58.367Z,78.70
2023-03-11T13:59:27.724Z,78.00
2023-03-11T14:01:57.014Z,78.60
2023-03-11T14:04:27.885Z,77.20
2023-03-11T14:06:54.746Z,77.70
2023-03-11T14:09:24.358Z,77.30
2023-03-11T14:11:53.009Z,77.70
2023-03-11T14:14:38.627Z,77.50
2023-03-11T14:17:08.993Z,75.70
2023-03-11T14:19:37.185Z,74.80
2023-03-11T14:22:08.382Z,75.80
2023-03-11T14:24:35.584Z,76.70
2023-03-11T14:27:07.006Z,76.60
2023-03-11T14:29:36.021Z,77.40
2023-03-11T14:32:17.587Z,77.80
2023-03-11T14:34:45.717Z,77.50
2023-03-11T14:37:25.799Z,76.00
2023-03-11T14:39:54.103Z,76.00
2023-03-11T14:42:25.289Z,77.70
2023-03-11T14:44:57.647Z,77.50
2023-03-11T14:47:32.143Z,77.80
2023-03-11T14:50:01.015Z,78.50
2023-03-11T14:52:34.672Z,77.10
2023-03-11T14:55:02.735Z,77.80
2023-03-11T14:57:37.865Z,75.30
2023-03-11T15:00:10.468Z,77.40
2023-03-11T15:02:42.998Z,74.90
2023-03-11T15:05:18.658Z,74.90
2023-03-11T15:07:46.974Z,75.30
2023-03-11T15:10:14.433Z,75.40
2023-03-11T15:12:43.243Z,75.30
2023-03-11T15:15:25.924Z,76.10
2023-03-11T15:17:54.017Z,76.70
2023-03-11T15:20:27.862Z,76.50
2023-03-11T15:22:57.544Z,76.40
2023-03-11T15:25:24.450Z,74.00
2023-03-11T15:27:51.410Z,75.90
2023-03-11T15:30:21.035Z,76.00
2023-03-11T15:32:48.255Z,76.10
2023-03-11T15:35:18.628Z,76.80
2023-03-11T15:37:47.900Z,77.30
2023-03-11T15:40:26.117Z,77.70
2023-03-11T15:43:21.273Z,76.70
2023-03-11T15:45:48.135Z,76.50
2023-03-11T15:48:15.004Z,75.90
2023-03-11T15:50:53.349Z,77.00
2023-03-11T15:53:23.800Z,76.80
2023-03-11T15:55:51.426Z,75.90
2023-03-11T15:58:20.180Z,75.90
2023-03-11T16:00:48.571Z,76.00
2023-03-11T16:03:16.359Z,75.70
2023-03-11T16:05:43.317Z,73.80
2023-03-11T16:08:10.327Z,73.60
2023-03-11T16:10:38.976Z,75.30
2023-03-11T16:13:06.166Z,74.80
2023-03-11T16:15:34.612Z,75.60
2023-03-11T16:18:02.831Z,73.80
2023-03-11T16:20:33.575Z,73.10
2023-03-11T16:23:00.949Z,72.80
2023-03-11T16:25:30.662Z,73.00
2023-03-11T16:27:59.024Z,72.80
2023-03-11T16:30:27.296Z,72.50
2023-03-11T16:32:54.105Z,73.20
2023-03-11T16:35:23.482Z,73.00
2023-03-11T16:37:51.031Z,72.60
2023-03-11T16:40:20.055Z,73.20
2023-03-11T16:42:47.572Z,73.20
2023-03-11T16:45:17.764Z,72.30
2023-03-11T16:47:45.025Z,72.20
2023-03-11T16:50:13.055Z,73.10
2023-03-11T16:52:41.895Z,72.60
2023-03-11T16:55:10.106Z,72.10
2023-03-11T16:57:37.295Z,73.30
2023-03-11T17:00:08.273Z,72.40
2023-03-11T17:02:37.566Z,72.10
2023-03-11T17:05:05.892Z,72.80
2023-03-11T17:07:36.248Z,73.60
2023-03-11T17:10:06.562Z,73.40
2023-03-11T17:12:34.096Z,73.40
2023-03-11T17:15:03.602Z,73.90
2023-03-11T17:17:31.258Z,74.20
2023-03-11T17:19:59.927Z,73.10
2023-03-11T17:22:27.804Z,73.70
2023-03-11T17:24:55.312Z,73.60
2023-03-11T17:27:22.544Z,73.90
2023-03-11T17:29:49.852Z,73.20
2023-03-11T17:32:17.580Z,73.30
2023-03-11T17:34:46.339Z,72.80
2023-03-11T17:37:14.861Z,73.10
2023-03-11T17:39:42.068Z,72.80
2023-03-11T17:42:09.424Z,73.30
2023-03-11T17:44:50.553Z,73.40
2023-03-11T17:47:19.023Z,73.00
2023-03-11T17:49:46.244Z,73.40
2023-03-11T17:52:15.253Z,73.30
2023-03-11T17:54:42.601Z,73.30
2023-03-11T17:57:09.863Z,73.40
2023-03-11T17:59:36.960Z,73.40
2023-03-11T18:02:04.342Z,73.00
2023-03-11T18:04:33.077Z,73.30
2023-03-11T18:07:00.281Z,73.40
2023-03-11T18:09:29.208Z,73.70
2023-03-11T18:11:56.758Z,73.30
2023-03-11T18:14:23.952Z,73.40
2023-03-11T18:16:51.171Z,73.70
2023-03-11T18:19:18.807Z,73.60
2023-03-11T18:21:46.131Z,73.80
2023-03-11T18:24:13.321Z,73.60
2023-03-11T18:26:41.893Z,73.80
2023-03-11T18:29:09.164Z,74.00
2023-03-11T18:31:39.243Z,73.90
2023-03-11T18:34:06.683Z,74.00
2023-03-11T18:36:39.541Z,74.10
2023-03-11T18:39:07.402Z,74.40
2023-03-11T18:41:35.124Z,73.40
2023-03-11T18:44:03.925Z,73.90
2023-03-11T18:46:32.575Z,73.90
2023-03-11T18:49:00.813Z,73.80
2023-03-11T18:51:29.210Z,73.80
2023-03-11T18:53:56.163Z,74.20
2023-03-11T18:56:22.911Z,74.10
2023-03-11T18:58:49.640Z,74.20
2023-03-11T19:01:20.036Z,73.90
2023-03-11T19:03:49.784Z,74.20
2023-03-11T19:06:16.505Z,74.60
2023-03-11T19:08:43.657Z,74.70
2023-03-11T19:11:11.958Z,74.60
2023-03-11T19:13:46.682Z,74.50
2023-03-11T19:16:15.715Z,74.50
2023-03-11T19:18:44.199Z,74.50
2023-03-11T19:21:12.442Z,74.70
2023-03-11T19:23:39.279Z,74.70
2023-03-11T19:26:06.068Z,74.80
2023-03-11T19:28:33.051Z,74.90
2023-03-11T19:30:59.888Z,74.60
2023-03-11T19:33:26.987Z,75.00
2023-03-11T19:35:56.444Z,75.00
2023-03-11T19:38:24.189Z,75.10
2023-03-11T19:40:54.093Z,75.20
2023-03-11T19:43:21.358Z,75.20
2023-03-11T19:45:49.071Z,75.20
2023-03-11T19:48:16.234Z,75.70
2023-03-11T19:50:43.304Z,75.90
2023-03-11T19:53:11.429Z,75.90
2023-03-11T19:55:42.664Z,76.10
2023-03-11T19:58:09.407Z,76.40
2023-03-11T20:00:36.156Z,76.70
2023-03-11T20:03:02.918Z,76.90
2023-03-11T20:05:29.679Z,76.80
2023-03-11T20:07:56.431Z,76.80
2023-03-11T20:10:24.545Z,76.70
2023-03-11T20:13:01.704Z,76.70
2023-03-11T20:15:29.389Z,76.80
2023-03-11T20:17:56.149Z,76.60
2023-03-11T20:20:22.971Z,76.70
2023-03-11T20:22:49.702Z,77.40
2023-03-11T20:25:16.626Z,76.90
2023-03-11T20:27:44.794Z,77.00
2023-03-11T20:30:12.861Z,77.20
2023-03-11T20:32:40.127Z,77.50
2023-03-11T20:35:07.808Z,78.00
2023-03-11T20:37:34.628Z,78.40
2023-03-11T20:40:01.456Z,78.30
2023-03-11T20:42:28.273Z,78.30
2023-03-11T20:44:56.369Z,78.40
2023-03-11T20:47:23.197Z,78.40
2023-03-11T20:49:50.034Z,78.30
2023-03-11T20:52:17.011Z,78.30
2023-03-11T20:54:43.809Z,78.40
2023-03-11T20:57:10.709Z,78.10
2023-03-11T20:59:38.091Z,78.10
2023-03-11T21:02:06.706Z,79.00
2023-03-11T21:04:33.530Z,78.10
2023-03-11T21:07:00.349Z,78.10
2023-03-11T21:09:27.120Z,78.30
2023-03-11T21:11:54.146Z,78.30
2023-03-11T21:14:20.908Z,78.20
2023-03-11T21:16:47.774Z,78.20
2023-03-11T21:19:15.945Z,78.30
2023-03-11T21:21:42.753Z,78.60
2023-03-11T21:24:10.580Z,78.90
2023-03-11T21:26:37.385Z,78.80
2023-03-11T21:29:04.400Z,78.70
2023-03-11T21:31:31.250Z,78.60
2023-03-11T21:33:59.500Z,78.50
2023-03-11T21:36:28.745Z,78.50
2023-03-11T21:38:55.641Z,78.70
2023-03-11T21:41:24.279Z,78.70
2023-03-11T21:43:51.707Z,78.70
2023-03-11T21:46:20.587Z,78.70
2023-03-11T21:48:48.345Z,78.80
2023-03-11T21:51:15.954Z,78.80
2023-03-11T21:53:44.318Z,78.80
2023-03-11T21:56:11.215Z,78.60
2023-03-11T21:58:38.048Z,78.60
2023-03-11T22:01:05.677Z,78.70
2023-03-11T22:03:33.281Z,78.80
2023-03-11T22:06:01.693Z,78.70
2023-03-11T22:08:28.814Z,78.70
2023-03-11T22:10:57.326Z,78.60
2023-03-11T22:13:24.949Z,78.70
2023-03-11T22:15:52.264Z,78.60
2023-03-11T22:18:19.351Z,78.50
2023-03-11T22:20:46.460Z,78.50
2023-03-11T22:23:13.522Z,78.40
2023-03-11T22:25:40.634Z,78.40
2023-03-11T22:28:09.432Z,78.50
2023-03-11T22:30:36.435Z,78.50
2023-03-11T22:33:03.182Z,78.50
2023-03-11T22:35:29.924Z,78.30
2023-03-11T22:37:56.652Z,78.20
2023-03-11T22:40:23.514Z,78.30
2023-03-11T22:42:50.312Z,78.30
2023-03-11T22:45:18.569Z,78.30
2023-03-11T22:47:45.298Z,78.30
2023-03-11T22:50:12.023Z,78.50
2023-03-11T22:52:38.735Z,78.50
2023-03-11T22:55:06.317Z,78.30
2023-03-11T22:57:33.054Z,78.50
2023-03-11T22:59:59.802Z,78.60
2023-03-11T23:02:27.886Z,79.00
2023-03-11T23:04:54.590Z,79.00
2023-03-11T23:07:21.354Z,79.00
2023-03-11T23:09:48.079Z,78.60
2023-03-11T23:12:14.798Z,78.70
2023-03-11T23:14:45.244Z,79.20
2023-03-11T23:17:12.353Z,79.30
2023-03-11T23:19:40.483Z,78.90
2023-03-11T23:22:07.188Z,78.60
2023-03-11T23:24:33.965Z,78.70
2023-03-11T23:27:00.748Z,79.30
2023-03-11T23:29:27.443Z,79.50
2023-03-11T23:31:54.130Z,79.60
2023-03-11T23:34:20.875Z,80.30
2023-03-11T23:36:48.930Z,79.50
2023-03-11T23:39:15.647Z,79.40
2023-03-11T23:41:42.393Z,79.40
2023-03-11T23:44:09.106Z,79.10
2023-03-11T23:46:35.925Z,79.30
2023-03-11T23:49:02.704Z,79.30
2023-03-11T23:51:29.464Z,79.50
2023-03-11T23:53:57.559Z,79.60
2023-03-11T23:56:24.432Z,79.60
2023-03-11T23:58:51.197Z,79.60
